createdAt,value
2019-04-03T00:00:14.800Z,99935.02
2019-04-03T00:02:43.443Z,99928.59
2019-04-03T00:05:12.154Z,99930.94
2019-04-03T00:07:41.292Z,99939.24
2019-04-03T00:10:10.508Z,99945.02
2019-04-03T00:12:41.016Z,99947.21
2019-04-03T00:15:09.374Z,99950.55
2019-04-03T00:17:37.890Z,99949.67
2019-04-03T00:20:07.921Z,99947.99
2019-04-03T00:22:37.768Z,99952.05
2019-04-03T00:25:07.453Z,99941.67
2019-04-03T00:27:36.025Z,99939.63
2019-04-03T00:30:07.051Z,99938.95
2019-04-03T00:32:35.757Z,99942.02
2019-04-03T00:35:07.001Z,99933.37
2019-04-03T00:37:35.555Z,99938.11
2019-04-03T00:40:09.158Z,99939.47
2019-04-03T00:42:37.645Z,99938.11
2019-04-03T00:45:07.258Z,99930.80
2019-04-03T00:47:36.387Z,99934.52
2019-04-03T00:50:06.717Z,99934.34
2019-04-03T00:52:36.986Z,99931.78
2019-04-03T00:55:06.636Z,99927.88
2019-04-03T00:57:35.109Z,99930.93
2019-04-03T01:00:05.374Z,99934.33
2019-04-03T01:02:33.901Z,99928.22
2019-04-03T01:05:02.675Z,99927.86
2019-04-03T01:07:31.157Z,99925.51
2019-04-03T01:09:59.998Z,99929.05
2019-04-03T01:12:30.393Z,99936.14
2019-04-03T01:15:01.087Z,99934.63
2019-04-03T01:17:30.352Z,99940.41
2019-04-03T01:19:58.808Z,99935.31
2019-04-03T01:22:27.362Z,99944.46
2019-04-03T01:24:55.871Z,99941.38
2019-04-03T01:27:24.360Z,99949.83
2019-04-03T01:29:52.899Z,99949.67
2019-04-03T01:32:21.376Z,99952.92
2019-04-03T01:34:51.594Z,99945.97
2019-04-03T01:37:20.053Z,99951.19
2019-04-03T01:39:51.417Z,99950.19
2019-04-03T01:42:22.347Z,99944.77
2019-04-03T01:44:50.102Z,99944.59
2019-04-03T01:47:18.801Z,99937.63
2019-04-03T01:49:50.614Z,99939.33
2019-04-03T01:52:19.094Z,99941.84
2019-04-03T01:54:47.581Z,99946.21
2019-04-03T01:57:16.089Z,99940.55
2019-04-03T01:59:44.539Z,99947.27
2019-04-03T02:02:14.536Z,99942.85
2019-04-03T02:04:43.088Z,99943.00
2019-04-03T02:07:14.101Z,99942.85
2019-04-03T02:09:44.642Z,99934.88
2019-04-03T02:12:13.472Z,99933.73
2019-04-03T02:14:42.075Z,99928.62
2019-04-03T02:17:12.480Z,99930.64
2019-04-03T02:19:40.986Z,99927.70
2019-04-03T02:22:12.456Z,99931.92
2019-04-03T02:24:41.094Z,99940.05
2019-04-03T02:27:09.567Z,99932.55
2019-04-03T02:29:40.424Z,99929.16
2019-04-03T02:32:08.360Z,99930.18
2019-04-03T02:34:36.989Z,99930.88
2019-04-03T02:37:08.738Z,99934.94
2019-04-03T02:39:37.327Z,99937.47
2019-04-03T02:42:09.850Z,99941.47
2019-04-03T02:44:40.326Z,99947.73
2019-04-03T02:47:08.883Z,99940.33
2019-04-03T02:49:39.458Z,99943.36
2019-04-03T02:52:07.947Z,99944.18
2019-04-03T02:54:39.489Z,99944.48
2019-04-03T02:57:11.461Z,99952.06
2019-04-03T02:59:39.960Z,99951.83
2019-04-03T03:02:11.424Z,99957.57
2019-04-03T03:04:39.050Z,99955.83
2019-04-03T03:07:07.822Z,99950.89
2019-04-03T03:09:37.589Z,99948.84
2019-04-03T03:12:06.654Z,99949.98
2019-04-03T03:14:39.385Z,99951.19
2019-04-03T03:17:08.016Z,99946.28
2019-04-03T03:19:37.601Z,99939.70
2019-04-03T03:22:08.119Z,99939.52
2019-04-03T03:24:37.016Z,99939.37
2019-04-03T03:27:08.093Z,99936.88
2019-04-03T03:29:36.109Z,99943.02
2019-04-03T03:32:15.776Z,99943.67
2019-04-03T03:34:51.020Z,99939.95
2019-04-03T03:37:14.593Z,99942.59
2019-04-03T03:39:44.645Z,99938.68
2019-04-03T03:42:15.417Z,99942.89
2019-04-03T03:44:46.059Z,99943.09
2019-04-03T03:47:15.564Z,99944.34
2019-04-03T03:49:48.666Z,99947.59
2019-04-03T03:52:19.032Z,99943.55
2019-04-03T03:54:51.074Z,99932.42
2019-04-03T03:57:20.182Z,99929.05
2019-04-03T03:59:52.487Z,99927.19
2019-04-03T04:02:21.632Z,99924.50
2019-04-03T04:04:52.596Z,99922.95
2019-04-03T04:07:20.783Z,99926.50
2019-04-03T04:09:51.757Z,99930.41
2019-04-03T04:12:21.051Z,99922.11
2019-04-03T04:14:49.895Z,99923.78
2019-04-03T04:17:19.054Z,99913.65
2019-04-03T04:19:47.724Z,99911.12
2019-04-03T04:22:18.193Z,99910.97
2019-04-03T04:24:47.163Z,99904.56
2019-04-03T04:27:19.630Z,99902.69
2019-04-03T04:29:48.532Z,99903.53
2019-04-03T04:32:17.101Z,99908.11
2019-04-03T04:34:50.033Z,99903.05
2019-04-03T04:37:19.026Z,99907.11
2019-04-03T04:39:47.994Z,99911.17
2019-04-03T04:42:16.601Z,99916.59
2019-04-03T04:44:45.103Z,99922.48
2019-04-03T04:47:15.112Z,99926.39
2019-04-03T04:49:43.796Z,99928.11
2019-04-03T04:52:12.290Z,99936.03
2019-04-03T04:54:42.926Z,99930.80
2019-04-03T04:57:11.350Z,99933.66
2019-04-03T04:59:40.080Z,99936.66
2019-04-03T05:02:10.389Z,99936.81
2019-04-03T05:04:39.186Z,99947.31
2019-04-03T05:07:08.273Z,99950.71
2019-04-03T05:09:36.780Z,99946.65
2019-04-03T05:12:05.386Z,99949.66
2019-04-03T05:14:33.941Z,99950.02
2019-04-03T05:17:02.581Z,99954.59
2019-04-03T05:19:31.419Z,99953.72
2019-04-03T05:22:02.248Z,99954.89
2019-04-03T05:25:18.973Z,99958.11
2019-04-03T05:27:47.522Z,99946.08
2019-04-03T05:30:30.049Z,99951.28
2019-04-03T05:32:59.263Z,99953.15
2019-04-03T05:35:27.755Z,99951.10
2019-04-03T05:37:56.288Z,99937.93
2019-04-03T05:40:26.204Z,99946.05
2019-04-03T05:42:55.633Z,99945.02
2019-04-03T05:45:27.032Z,99947.59
2019-04-03T05:47:55.531Z,99947.59
2019-04-03T05:50:25.729Z,99953.69
2019-04-03T05:52:54.437Z,99951.67
2019-04-03T05:55:23.013Z,99966.27
2019-04-03T05:58:02.712Z,99962.53
2019-04-03T06:00:31.223Z,99964.58
2019-04-03T06:02:59.706Z,99968.31
2019-04-03T06:05:28.190Z,99967.77
2019-04-03T06:07:58.490Z,99970.66
2019-04-03T06:10:31.600Z,99972.55
2019-04-03T06:12:59.544Z,99970.05
2019-04-03T06:15:28.362Z,99970.23
2019-04-03T06:17:56.828Z,99980.73
2019-04-03T06:20:25.388Z,99979.08
2019-04-03T06:22:54.114Z,99975.70
2019-04-03T06:25:23.015Z,99981.16
2019-04-03T06:27:51.663Z,99978.66
2019-04-03T06:30:20.426Z,99985.78
2019-04-03T06:32:49.016Z,99985.81
2019-04-03T06:35:17.639Z,99988.73
2019-04-03T06:37:46.090Z,99988.60
2019-04-03T06:40:14.822Z,99995.04
2019-04-03T06:42:44.962Z,99991.66
2019-04-03T06:45:15.604Z,99996.78
2019-04-03T06:47:43.886Z,99997.31
2019-04-03T06:50:13.497Z,99995.45
2019-04-03T06:52:42.476Z,99997.64
2019-04-03T06:55:11.106Z,100002.40
2019-04-03T06:57:40.036Z,100003.27
2019-04-03T07:00:09.139Z,100003.96
2019-04-03T07:02:37.805Z,100007.19
2019-04-03T07:05:10.803Z,100016.31
2019-04-03T07:07:39.521Z,100013.42
2019-04-03T07:10:09.469Z,100014.93
2019-04-03T07:12:38.235Z,100019.38
2019-04-03T07:15:07.818Z,100024.31
2019-04-03T07:17:36.451Z,100025.18
2019-04-03T07:20:13.603Z,100020.95
2019-04-03T07:22:36.489Z,100022.01
2019-04-03T07:25:07.325Z,100018.80
2019-04-03T07:27:41.642Z,100019.19
2019-04-03T07:30:09.293Z,100023.77
2019-04-03T07:32:37.931Z,100024.09
2019-04-03T07:35:10.132Z,100027.49
2019-04-03T07:37:37.296Z,100034.66
2019-04-03T07:40:09.047Z,100033.83
2019-04-03T07:42:37.887Z,100032.48
2019-04-03T07:45:08.001Z,100031.14
2019-04-03T07:47:36.670Z,100041.33
2019-04-03T07:50:10.397Z,100038.47
2019-04-03T07:52:38.185Z,100037.97
2019-04-03T07:55:17.250Z,100050.70
2019-04-03T07:57:45.725Z,100045.83
2019-04-03T08:00:14.744Z,100050.10
2019-04-03T08:02:47.948Z,100046.56
2019-04-03T08:05:14.214Z,100050.33
2019-04-03T08:07:42.753Z,100043.89
2019-04-03T08:10:12.067Z,100044.92
2019-04-03T08:12:40.618Z,100038.34
2019-04-03T08:15:09.391Z,100038.20
2019-04-03T08:17:38.522Z,100033.30
2019-04-03T08:20:10.300Z,100034.15
2019-04-03T08:22:42.086Z,100042.30
2019-04-03T08:25:12.536Z,100042.45
2019-04-03T08:27:41.330Z,100050.27
2019-04-03T08:30:10.519Z,100043.33
2019-04-03T08:32:40.507Z,100048.92
2019-04-03T08:35:20.804Z,100043.66
2019-04-03T08:37:41.960Z,100046.21
2019-04-03T08:40:12.442Z,100050.44
2019-04-03T08:42:40.920Z,100046.58
2019-04-03T08:45:12.678Z,100054.89
2019-04-03T08:47:46.145Z,100054.21
2019-04-03T08:50:12.707Z,100059.96
2019-04-03T08:52:41.320Z,100057.77
2019-04-03T08:55:14.045Z,100050.98
2019-04-03T08:57:45.647Z,100063.19
2019-04-03T09:00:14.115Z,100066.58
2019-04-03T09:02:43.879Z,100064.19
2019-04-03T09:05:15.004Z,100066.73
2019-04-03T09:07:43.611Z,100066.41
2019-04-03T09:10:13.794Z,100072.67
2019-04-03T09:12:42.303Z,100074.30
2019-04-03T09:15:12.786Z,100079.21
2019-04-03T09:17:42.889Z,100080.20
2019-04-03T09:20:13.509Z,100086.84
2019-04-03T09:22:41.910Z,100085.14
2019-04-03T09:25:13.967Z,100088.16
2019-04-03T09:27:42.591Z,100085.44
2019-04-03T09:30:15.763Z,100088.81
2019-04-03T09:32:46.377Z,100088.80
2019-04-03T09:35:15.528Z,100089.75
2019-04-03T09:37:46.372Z,100092.77
2019-04-03T09:40:17.273Z,100096.48
2019-04-03T09:42:45.712Z,100088.80
2019-04-03T09:45:15.101Z,100091.48
2019-04-03T09:47:46.336Z,100086.04
2019-04-03T09:50:16.613Z,100088.52
2019-04-03T09:52:49.437Z,100086.81
2019-04-03T09:55:15.512Z,100088.63
2019-04-03T09:57:44.002Z,100083.33
2019-04-03T10:00:15.872Z,100080.08
2019-04-03T10:02:48.886Z,100079.23
2019-04-03T10:05:18.481Z,100074.33
2019-04-03T10:07:47.117Z,100074.87
2019-04-03T10:10:17.153Z,100071.81
2019-04-03T10:12:48.005Z,100067.60
2019-04-03T10:18:47.574Z,100057.31
2019-04-03T10:21:16.145Z,100066.83
2019-04-03T10:23:44.692Z,100067.21
2019-04-03T10:26:13.741Z,100066.70
2019-04-03T10:28:43.243Z,100068.39
2019-04-03T10:31:12.716Z,100066.37
2019-04-03T10:33:41.261Z,100066.85
2019-04-03T10:36:11.424Z,100069.92
2019-04-03T10:38:42.689Z,100067.52
2019-04-03T10:41:11.702Z,100061.77
2019-04-03T10:43:42.262Z,100064.81
2019-04-03T10:46:10.909Z,100065.49
2019-04-03T10:48:39.353Z,100062.98
2019-04-03T10:51:09.288Z,100068.26
2019-04-03T10:53:40.925Z,100069.77
2019-04-03T10:56:09.449Z,100075.73
2019-04-03T10:58:40.246Z,100067.05
2019-04-03T11:01:08.409Z,100067.59
2019-04-03T11:03:38.433Z,100061.79
2019-04-03T11:06:07.238Z,100065.72
2019-04-03T11:08:36.008Z,100064.19
2019-04-03T11:11:05.128Z,100059.25
2019-04-03T11:13:34.297Z,100056.05
2019-04-03T11:16:03.489Z,100054.85
2019-04-03T11:18:32.458Z,100045.36
2019-04-03T11:21:01.109Z,100044.52
2019-04-03T11:23:37.815Z,100044.01
2019-04-03T11:25:59.875Z,100037.90
2019-04-03T11:28:28.471Z,100034.00
2019-04-03T11:31:00.841Z,100030.61
2019-04-03T11:33:27.478Z,100027.72
2019-04-03T11:35:56.403Z,100024.80
2019-04-03T11:38:29.240Z,100028.72
2019-04-03T11:40:57.049Z,100028.87
2019-04-03T11:43:25.534Z,100019.38
2019-04-03T11:45:54.139Z,100011.58
2019-04-03T11:48:22.676Z,100010.38
2019-04-03T11:50:51.187Z,99998.19
2019-04-03T11:53:19.625Z,99989.88
2019-04-03T11:55:48.721Z,99995.80
2019-04-03T11:58:22.736Z,99987.66
2019-04-03T12:00:52.672Z,99984.32
2019-04-03T12:03:21.164Z,99987.36
2019-04-03T12:05:50.375Z,99982.98
2019-04-03T12:08:18.854Z,99988.57
2019-04-03T12:10:47.422Z,99986.22
2019-04-03T12:13:15.913Z,99989.62
2019-04-03T12:15:44.862Z,99989.94
2019-04-03T12:18:13.362Z,99989.77
2019-04-03T12:20:44.766Z,99989.41
2019-04-03T12:23:12.343Z,99991.97
2019-04-03T12:29:12.364Z,99991.64
2019-04-03T12:31:41.080Z,99993.33
2019-04-03T12:34:09.862Z,99988.27
2019-04-03T12:36:38.362Z,99980.61
2019-04-03T12:39:09.865Z,99972.33
2019-04-03T12:41:38.423Z,99980.31
2019-04-03T12:44:06.904Z,99958.30
2019-04-03T12:46:40.837Z,99956.11
2019-04-03T12:49:08.855Z,99953.36
2019-04-03T12:51:37.682Z,99946.72
2019-04-03T12:54:06.548Z,99954.38
2019-04-03T12:56:38.217Z,99957.62
2019-04-03T12:59:09.006Z,99949.30
2019-04-03T13:01:36.991Z,99952.38
2019-04-03T13:04:05.743Z,99943.56
2019-04-03T13:06:34.710Z,99937.81
2019-04-03T13:09:05.272Z,99938.82
2019-04-03T13:11:36.485Z,99936.12
2019-04-03T13:14:08.361Z,99929.69
2019-04-03T13:16:37.793Z,99926.14
2019-04-03T13:19:06.604Z,99925.10
2019-04-03T13:21:39.794Z,99922.39
2019-04-03T13:24:12.409Z,99917.64
2019-04-03T13:26:39.198Z,99920.72
2019-04-03T13:29:08.997Z,99926.47
2019-04-03T13:31:37.978Z,99917.87
2019-04-03T13:34:10.177Z,99922.95
2019-04-03T13:36:37.109Z,99920.76
2019-04-03T13:39:07.612Z,99918.21
2019-04-03T13:41:36.080Z,99915.66
2019-04-03T13:44:04.699Z,99915.86
2019-04-03T13:46:36.451Z,99906.36
2019-04-03T13:49:05.219Z,99917.06
2019-04-03T13:51:34.074Z,99907.73
2019-04-03T13:54:08.586Z,99910.44
2019-04-03T13:56:37.909Z,99909.44
2019-04-03T13:59:09.154Z,99912.16
2019-04-03T14:01:40.021Z,99908.92
2019-04-03T14:04:07.900Z,99904.02
2019-04-03T14:06:37.129Z,99897.75
2019-04-03T14:09:07.454Z,99894.19
2019-04-03T14:11:35.981Z,99888.25
2019-04-03T14:14:06.730Z,99880.62
2019-04-03T14:16:35.592Z,99878.58
2019-04-03T14:19:04.869Z,99874.18
2019-04-03T14:21:35.704Z,99870.95
2019-04-03T14:24:08.274Z,99866.03
2019-04-03T14:26:35.774Z,99859.73
2019-04-03T14:29:07.391Z,99860.25
2019-04-03T14:31:37.370Z,99860.92
2019-04-03T14:34:05.148Z,99852.77
2019-04-03T14:36:33.688Z,99852.42
2019-04-03T14:39:03.513Z,99851.94
2019-04-03T14:41:34.996Z,99856.02
2019-04-03T14:44:03.492Z,99857.53
2019-04-03T14:46:32.433Z,99859.23
2019-04-03T14:49:03.095Z,99861.44
2019-04-03T14:51:34.919Z,99863.31
2019-04-03T14:54:11.191Z,99861.75
2019-04-03T14:56:35.920Z,99863.62
2019-04-03T14:59:13.708Z,99859.72
2019-04-03T15:01:35.214Z,99863.44
2019-04-03T15:04:04.134Z,99858.19
2019-04-03T15:06:32.673Z,99862.94
2019-04-03T15:09:01.368Z,99854.13
2019-04-03T15:11:32.833Z,99856.45
2019-04-03T15:14:03.612Z,99858.16
2019-04-03T15:16:33.598Z,99863.73
2019-04-03T15:19:02.633Z,99864.42
2019-04-03T15:21:31.802Z,99852.16
2019-04-03T15:24:00.415Z,99852.97
2019-04-03T15:26:31.973Z,99850.09
2019-04-03T15:29:02.275Z,99837.36
2019-04-03T15:31:31.127Z,99835.48
2019-04-03T15:33:59.628Z,99827.29
2019-04-03T15:36:28.167Z,99824.41
2019-04-03T15:38:58.799Z,99820.17
2019-04-03T15:41:28.661Z,99822.68
2019-04-03T15:43:57.210Z,99817.69
2019-04-03T15:46:27.139Z,99810.02
2019-04-03T15:49:03.625Z,99810.37
2019-04-03T15:51:32.146Z,99799.48
2019-04-03T15:54:03.812Z,99796.74
2019-04-03T15:56:32.936Z,99792.00
2019-04-03T15:59:02.965Z,99793.30
2019-04-03T16:01:32.235Z,99784.02
2019-04-03T16:04:03.543Z,99788.61
2019-04-03T16:06:35.933Z,99787.23
2019-04-03T16:09:07.973Z,99784.21
2019-04-03T16:11:41.587Z,99776.25
2019-04-03T16:14:10.279Z,99776.62
2019-04-03T16:16:39.141Z,99779.34
2019-04-03T16:19:08.370Z,99782.92
2019-04-03T16:21:38.304Z,99784.95
2019-04-03T16:24:11.383Z,99779.47
2019-04-03T16:26:37.114Z,99771.04
2019-04-03T16:29:06.890Z,99767.63
2019-04-03T16:31:36.129Z,99767.13
2019-04-03T16:34:08.609Z,99769.14
2019-04-03T16:36:35.138Z,99765.75
2019-04-03T16:39:05.389Z,99762.02
2019-04-03T16:41:33.846Z,99763.38
2019-04-03T16:44:02.396Z,99758.83
2019-04-03T16:46:30.941Z,99757.03
2019-04-03T16:49:00.009Z,99750.77
2019-04-03T16:51:29.202Z,99757.22
2019-04-03T16:54:02.013Z,99759.44
2019-04-03T16:56:33.871Z,99762.67
2019-04-03T16:59:08.123Z,99764.36
2019-04-03T17:01:40.833Z,99773.01
2019-04-03T17:04:10.424Z,99764.55
2019-04-03T17:06:39.514Z,99762.33
2019-04-03T17:09:10.663Z,99760.48
2019-04-03T17:11:39.289Z,99755.92
2019-04-03T17:14:09.397Z,99760.51
2019-04-03T17:16:40.667Z,99761.01
2019-04-03T17:19:09.189Z,99762.72
2019-04-03T17:21:39.021Z,99751.67
2019-04-03T17:24:08.560Z,99744.66
2019-04-03T17:26:48.330Z,99736.02
2019-04-03T17:29:08.146Z,99744.52
2019-04-03T17:31:36.711Z,99743.89
2019-04-03T17:34:07.524Z,99761.20
2019-04-03T17:36:37.116Z,99767.47
2019-04-03T17:39:08.217Z,99771.75
2019-04-03T17:41:40.818Z,99773.28
2019-04-03T17:44:09.298Z,99783.64
2019-04-03T17:46:40.188Z,99787.22
2019-04-03T17:49:08.927Z,99786.55
2019-04-03T17:51:37.420Z,99775.19
2019-04-03T17:54:42.393Z,99781.99
2019-04-03T17:57:13.443Z,99787.59
2019-04-03T17:59:41.133Z,99794.89
2019-04-03T18:02:09.689Z,99801.70
2019-04-03T18:04:38.167Z,99800.02
2019-04-03T18:07:06.645Z,99800.20
2019-04-03T18:09:37.705Z,99794.95
2019-04-03T18:12:06.261Z,99787.49
2019-04-03T18:14:36.282Z,99792.90
2019-04-03T18:17:04.840Z,99795.62
2019-04-03T18:19:37.744Z,99793.59
2019-04-03T18:22:04.123Z,99788.85
2019-04-03T18:24:32.612Z,99788.66
2019-04-03T18:27:02.561Z,99793.77
2019-04-03T18:29:45.492Z,99796.97
2019-04-03T18:32:15.395Z,99790.67
2019-04-03T18:34:51.153Z,99794.73
2019-04-03T18:37:19.152Z,99791.34
2019-04-03T18:39:51.974Z,99787.77
2019-04-03T18:42:25.665Z,99781.14
2019-04-03T18:44:54.077Z,99786.56
2019-04-03T18:47:22.634Z,99791.67
2019-04-03T18:49:55.315Z,99785.88
2019-04-03T18:52:28.253Z,99784.84
2019-04-03T18:54:58.341Z,99789.27
2019-04-03T18:57:26.822Z,99789.58
2019-04-03T18:59:56.469Z,99784.16
2019-04-03T19:02:27.650Z,99779.21
2019-04-03T19:05:01.862Z,99781.08
2019-04-03T19:07:26.378Z,99775.29
2019-04-03T19:10:06.321Z,99781.90
2019-04-03T19:12:35.547Z,99775.28
2019-04-03T19:14:58.304Z,99774.95
2019-04-03T19:17:27.458Z,99771.56
2019-04-03T19:20:09.796Z,99769.17
2019-04-03T19:22:26.357Z,99769.33
2019-04-03T19:24:54.832Z,99767.30
2019-04-03T19:27:24.836Z,99766.09
2019-04-03T19:29:56.717Z,99759.31
2019-04-03T19:32:25.260Z,99754.92
2019-04-03T19:34:58.250Z,99753.05
2019-04-03T19:37:26.796Z,99752.52
2019-04-03T19:39:55.432Z,99751.84
2019-04-03T19:42:23.911Z,99756.88
2019-04-03T19:44:52.451Z,99753.49
2019-04-03T19:47:22.806Z,99741.61
2019-04-03T19:49:52.232Z,99724.52
2019-04-03T19:52:20.725Z,99720.45
2019-04-03T19:54:49.644Z,99721.64
2019-04-03T19:57:22.423Z,99719.62
2019-04-03T19:59:50.887Z,99712.64
2019-04-03T20:02:22.114Z,99713.45
2019-04-03T20:04:51.284Z,99699.23
2019-04-03T20:07:40.986Z,99703.13
2019-04-03T20:10:11.215Z,99707.51
2019-04-03T20:12:39.844Z,99704.61
2019-04-03T20:15:09.154Z,99693.57
2019-04-03T20:17:37.635Z,99691.38
2019-04-03T20:20:07.951Z,99681.75
2019-04-03T20:22:38.211Z,99688.52
2019-04-03T20:25:07.211Z,99681.91
2019-04-03T20:27:35.760Z,99687.97
2019-04-03T20:30:06.587Z,99677.97
2019-04-03T20:32:35.062Z,99666.63
2019-04-03T20:35:04.191Z,99653.98
2019-04-03T20:37:32.678Z,99653.83
2019-04-03T20:40:05.806Z,99664.98
2019-04-03T20:42:34.447Z,99652.80
2019-04-03T20:45:03.075Z,99650.94
2019-04-03T20:47:31.555Z,99647.22
2019-04-03T20:50:00.041Z,99639.57
2019-04-03T20:52:30.039Z,99630.44
2019-04-03T20:54:58.522Z,99623.32
2019-04-03T20:57:26.990Z,99624.50
2019-04-03T21:00:01.800Z,99630.59
2019-04-03T21:02:25.835Z,99631.11
2019-04-03T21:04:57.073Z,99636.85
2019-04-03T21:07:25.523Z,99625.03
2019-04-03T21:09:53.995Z,99634.50
2019-04-03T21:12:22.452Z,99634.14
2019-04-03T21:14:50.946Z,99634.83
2019-04-03T21:17:19.495Z,99640.92
2019-04-03T21:19:47.977Z,99631.45
2019-04-03T21:22:16.594Z,99612.51
2019-04-03T21:24:45.078Z,99625.88
2019-04-03T21:27:15.170Z,99627.44
2019-04-03T21:29:43.715Z,99624.22
2019-04-03T21:32:13.826Z,99620.16
2019-04-03T21:34:42.937Z,99608.30
2019-04-03T21:37:13.850Z,99607.78
2019-04-03T21:39:43.549Z,99601.73
2019-04-03T21:42:12.065Z,99603.56
2019-04-03T21:44:40.537Z,99613.19
2019-04-03T21:47:11.467Z,99612.51
2019-04-03T21:49:39.206Z,99611.16
2019-04-03T21:52:08.947Z,99603.72
2019-04-03T21:54:37.375Z,99593.41
2019-04-03T21:57:06.814Z,99586.12
2019-04-03T21:59:35.385Z,99583.41
2019-04-03T22:02:04.386Z,99581.53
2019-04-03T22:04:35.681Z,99574.77
2019-04-03T22:07:04.277Z,99562.78
2019-04-03T22:09:32.747Z,99564.30
2019-04-03T22:12:01.263Z,99550.42
2019-04-03T22:14:29.749Z,99538.95
2019-04-03T22:16:58.505Z,99540.11
2019-04-03T22:19:27.746Z,99538.42
2019-04-03T22:21:58.339Z,99521.32
2019-04-03T22:24:26.915Z,99514.72
2019-04-03T22:26:55.381Z,99513.03
2019-04-03T22:29:23.857Z,99513.04
2019-04-03T22:31:54.439Z,99507.78
2019-04-03T22:34:22.523Z,99506.27
2019-04-03T22:36:50.983Z,99505.25
2019-04-03T22:39:19.481Z,99506.59
2019-04-03T22:41:48.007Z,99502.89
2019-04-03T22:44:17.115Z,99503.06
2019-04-03T22:46:46.338Z,99496.98
2019-04-03T22:49:14.822Z,99489.05
2019-04-03T22:51:43.416Z,99490.73
2019-04-03T22:54:12.695Z,99489.89
2019-04-03T22:56:41.806Z,99492.95
2019-04-03T22:59:10.362Z,99476.05
2019-04-03T23:01:39.041Z,99476.52
2019-04-03T23:04:07.523Z,99462.83
2019-04-03T23:06:36.414Z,99459.61
2019-04-03T23:09:08.962Z,99468.76
2019-04-03T23:11:37.520Z,99482.77
2019-04-03T23:14:07.535Z,99480.22
2019-04-03T23:16:36.151Z,99471.10
2019-04-03T23:19:04.668Z,99466.20
2019-04-03T23:21:33.146Z,99456.91
2019-04-03T23:24:01.612Z,99452.36
2019-04-03T23:26:32.064Z,99441.19
2019-04-03T23:29:00.285Z,99436.97
2019-04-03T23:31:28.759Z,99442.86
2019-04-03T23:33:59.089Z,99446.44
2019-04-03T23:36:27.559Z,99449.14
2019-04-03T23:38:56.739Z,99461.64
2019-04-03T23:41:25.655Z,99533.70
2019-04-03T23:43:55.696Z,99644.64
2019-04-03T23:46:24.215Z,99540.79
2019-04-03T23:48:52.732Z,99661.59
2019-04-03T23:51:23.422Z,99635.58
2019-04-03T23:53:51.392Z,99628.45
2019-04-03T23:56:19.862Z,99628.81
2019-04-03T23:58:48.353Z,99570.27
